createdAt,value
2018-03-25T00:00:51.681Z,33.70
2018-03-25T00:01:51.897Z,34.10
2018-03-25T00:02:52.112Z,32.60
2018-03-25T00:03:56.095Z,35.20
2018-03-25T00:04:52.436Z,34.70
2018-03-25T00:05:56.600Z,39.70
2018-03-25T00:06:52.796Z,38.50
2018-03-25T00:07:53.005Z,37.50
2018-03-25T00:08:53.221Z,41.10
2018-03-25T00:09:55.096Z,41.10
2018-03-25T00:10:53.548Z,39.60
2018-03-25T00:11:53.744Z,43.60
2018-03-25T00:12:53.951Z,40.50
2018-03-25T00:13:54.152Z,38.70
2018-03-25T00:14:54.358Z,40.70
2018-03-25T00:15:54.557Z,40.30
2018-03-25T00:16:54.764Z,36.60
2018-03-25T00:17:56.614Z,43.30
2018-03-25T00:18:55.185Z,44.40
2018-03-25T00:19:55.382Z,40.10
2018-03-25T00:20:55.588Z,41.70
2018-03-25T00:21:57.608Z,46.20
2018-03-25T00:22:59.595Z,43.10
2018-03-25T00:23:56.049Z,46.00
2018-03-25T00:24:56.259Z,45.20
2018-03-25T00:25:56.467Z,44.80
2018-03-25T00:26:56.678Z,44.40
2018-03-25T00:27:56.894Z,45.70
2018-03-25T00:28:57.079Z,42.00
2018-03-25T00:30:00.112Z,44.00
2018-03-25T00:30:57.448Z,45.40
2018-03-25T00:31:57.657Z,46.40
2018-03-25T00:32:57.854Z,48.80
2018-03-25T00:33:58.053Z,47.50
2018-03-25T00:35:00.097Z,49.30
2018-03-25T00:35:58.424Z,47.60
2018-03-25T00:36:58.632Z,48.60
2018-03-25T00:37:58.841Z,49.00
2018-03-25T00:38:59.049Z,48.20
2018-03-25T00:39:59.258Z,48.00
2018-03-25T00:40:59.466Z,50.10
2018-03-25T00:41:59.669Z,48.50
2018-03-25T00:42:59.881Z,48.90
2018-03-25T00:44:00.084Z,49.30
2018-03-25T00:45:00.277Z,48.80
2018-03-25T00:46:00.486Z,46.40
2018-03-25T00:47:00.688Z,46.90
2018-03-25T00:48:02.596Z,49.10
2018-03-25T00:49:01.055Z,48.30
2018-03-25T00:50:01.266Z,46.90
2018-03-25T00:51:01.458Z,48.40
2018-03-25T00:52:01.667Z,49.30
2018-03-25T00:53:01.871Z,50.50
2018-03-25T00:54:02.081Z,48.80
2018-03-25T00:55:02.296Z,48.60
2018-03-25T00:56:02.509Z,50.60
2018-03-25T00:57:04.595Z,52.30
2018-03-25T00:58:04.597Z,49.50
2018-03-25T00:59:03.038Z,47.50
2018-03-25T01:00:03.252Z,47.60
2018-03-25T01:01:03.450Z,51.90
2018-03-25T01:02:03.652Z,50.40
2018-03-25T01:03:07.599Z,54.10
2018-03-25T01:04:04.049Z,50.20
2018-03-25T01:05:04.261Z,48.00
2018-03-25T01:06:04.460Z,50.60
2018-03-25T01:07:04.665Z,49.40
2018-03-25T01:08:04.874Z,49.80
2018-03-25T01:09:05.085Z,49.50
2018-03-25T01:10:05.294Z,50.80
2018-03-25T01:11:05.507Z,54.60
2018-03-25T01:12:05.703Z,48.60
2018-03-25T01:13:05.914Z,50.00
2018-03-25T01:14:08.098Z,47.60
2018-03-25T01:15:06.294Z,50.70
2018-03-25T01:16:06.515Z,52.40
2018-03-25T01:17:06.718Z,52.20
2018-03-25T01:18:06.954Z,52.90
2018-03-25T01:19:14.105Z,51.90
2018-03-25T01:20:07.310Z,51.50
2018-03-25T01:21:09.099Z,54.90
2018-03-25T01:22:07.684Z,54.60
2018-03-25T01:23:07.899Z,55.50
2018-03-25T01:24:09.598Z,53.90
2018-03-25T01:25:08.341Z,55.40
2018-03-25T01:26:08.537Z,55.90
2018-03-25T01:27:08.724Z,55.30
2018-03-25T01:28:08.919Z,55.20
2018-03-25T01:29:09.129Z,55.80
2018-03-25T01:30:09.339Z,58.20
2018-03-25T01:31:09.546Z,58.20
2018-03-25T01:32:09.748Z,58.10
2018-03-25T01:33:09.959Z,56.90
2018-03-25T01:34:10.158Z,54.50
2018-03-25T01:35:10.384Z,53.40
2018-03-25T01:36:12.099Z,53.00
2018-03-25T01:37:10.809Z,57.30
2018-03-25T01:38:11.020Z,54.90
2018-03-25T01:39:11.217Z,53.30
2018-03-25T01:40:11.412Z,57.10
2018-03-25T01:41:11.624Z,52.60
2018-03-25T01:42:11.833Z,53.90
2018-03-25T01:43:13.599Z,59.40
2018-03-25T01:44:12.185Z,58.30
2018-03-25T01:45:14.110Z,56.00
2018-03-25T01:46:12.554Z,64.30
2018-03-25T01:47:12.767Z,63.30
2018-03-25T01:48:16.596Z,60.00
2018-03-25T01:49:13.178Z,57.50
2018-03-25T01:50:13.394Z,57.90
2018-03-25T01:51:13.588Z,54.50
2018-03-25T01:52:13.802Z,56.70
2018-03-25T01:53:14.003Z,60.20
2018-03-25T01:54:14.215Z,59.40
2018-03-25T01:55:14.413Z,55.70
2018-03-25T01:56:14.612Z,68.40
2018-03-25T01:57:14.820Z,61.20
2018-03-25T01:58:15.019Z,57.10
2018-03-25T01:59:15.239Z,58.10
2018-03-25T02:00:15.450Z,60.70
2018-03-25T02:01:15.651Z,67.20
2018-03-25T02:02:15.863Z,66.70
2018-03-25T02:03:17.596Z,70.00
2018-03-25T02:04:18.096Z,62.50
2018-03-25T02:05:18.097Z,65.80
2018-03-25T02:06:16.434Z,67.40
2018-03-25T02:07:16.635Z,67.00
2018-03-25T02:08:16.839Z,71.40
2018-03-25T02:09:17.048Z,74.20
2018-03-25T02:10:17.248Z,73.60
2018-03-25T02:11:17.464Z,66.20
2018-03-25T02:12:17.660Z,73.60
2018-03-25T02:13:17.860Z,72.10
2018-03-25T02:14:19.596Z,74.00
2018-03-25T02:15:18.169Z,72.10
2018-03-25T02:16:18.379Z,72.50
2018-03-25T02:17:22.114Z,76.00
2018-03-25T02:18:18.790Z,74.00
2018-03-25T02:19:18.997Z,71.30
2018-03-25T02:20:19.196Z,75.30
2018-03-25T02:21:19.417Z,73.40
2018-03-25T02:22:19.617Z,78.40
2018-03-25T02:23:19.828Z,71.40
2018-03-25T02:24:20.043Z,69.80
2018-03-25T02:25:20.255Z,70.20
2018-03-25T02:26:20.448Z,69.90
2018-03-25T02:27:20.651Z,73.20
2018-03-25T02:28:20.858Z,70.40
2018-03-25T02:29:21.071Z,74.70
2018-03-25T02:30:23.107Z,76.30
2018-03-25T02:31:21.439Z,75.10
2018-03-25T02:32:21.655Z,72.40
2018-03-25T02:33:23.602Z,71.90
2018-03-25T02:34:23.596Z,70.20
2018-03-25T02:35:26.099Z,73.50
2018-03-25T02:36:22.309Z,76.30
2018-03-25T02:37:22.507Z,69.30
2018-03-25T02:38:22.715Z,67.20
2018-03-25T02:39:22.962Z,70.20
2018-03-25T02:40:23.114Z,65.20
2018-03-25T02:41:25.104Z,67.60
2018-03-25T02:42:27.094Z,71.10
2018-03-25T02:43:23.540Z,65.10
2018-03-25T02:44:25.601Z,69.60
2018-03-25T02:45:23.927Z,67.10
2018-03-25T02:46:24.149Z,63.10
2018-03-25T02:47:24.334Z,74.90
2018-03-25T02:48:24.547Z,71.70
2018-03-25T02:49:24.748Z,67.00
2018-03-25T02:50:26.597Z,73.70
2018-03-25T02:51:25.067Z,77.70
2018-03-25T02:52:27.098Z,69.10
2018-03-25T02:53:25.427Z,70.40
2018-03-25T02:54:25.654Z,71.90
2018-03-25T02:55:25.854Z,74.00
2018-03-25T02:56:26.061Z,73.30
2018-03-25T02:57:26.316Z,75.30
2018-03-25T02:58:26.490Z,72.20
2018-03-25T02:59:26.700Z,70.80
2018-03-25T03:00:28.598Z,78.90
2018-03-25T03:01:27.044Z,79.20
2018-03-25T03:02:27.249Z,81.50
2018-03-25T03:03:27.446Z,78.80
2018-03-25T03:04:27.653Z,76.00
2018-03-25T03:05:29.607Z,78.20
2018-03-25T03:06:28.088Z,74.60
2018-03-25T03:07:28.297Z,78.20
2018-03-25T03:08:28.523Z,79.90
2018-03-25T03:09:28.716Z,80.70
2018-03-25T03:10:28.917Z,92.90
2018-03-25T03:11:31.099Z,89.90
2018-03-25T03:12:29.294Z,79.30
2018-03-25T03:13:31.089Z,78.80
2018-03-25T03:14:31.601Z,77.40
2018-03-25T03:15:32.599Z,69.30
2018-03-25T03:16:31.598Z,75.70
2018-03-25T03:17:30.044Z,77.00
2018-03-25T03:18:32.097Z,75.80
2018-03-25T03:19:30.426Z,76.50
2018-03-25T03:20:30.630Z,77.60
2018-03-25T03:21:32.597Z,76.00
2018-03-25T03:22:31.054Z,78.00
2018-03-25T03:23:31.256Z,74.70
2018-03-25T03:24:31.459Z,82.20
2018-03-25T03:25:31.666Z,84.40
2018-03-25T03:26:31.866Z,90.50
2018-03-25T03:27:32.074Z,93.20
2018-03-25T03:28:32.271Z,84.70
2018-03-25T03:29:32.482Z,81.90
2018-03-25T03:30:32.688Z,90.20
2018-03-25T03:31:34.599Z,89.40
2018-03-25T03:32:36.597Z,80.20
2018-03-25T03:33:33.179Z,78.50
2018-03-25T03:34:33.387Z,81.00
2018-03-25T03:35:33.572Z,78.20
2018-03-25T03:36:33.765Z,81.20
2018-03-25T03:37:33.976Z,81.20
2018-03-25T03:38:34.188Z,78.50
2018-03-25T03:39:34.390Z,84.60
2018-03-25T03:40:36.096Z,82.60
2018-03-25T03:41:34.796Z,86.30
2018-03-25T03:42:34.992Z,91.30
2018-03-25T03:43:35.201Z,88.30
2018-03-25T03:44:35.407Z,91.30
2018-03-25T03:45:35.603Z,93.70
2018-03-25T03:46:35.806Z,93.80
2018-03-25T03:47:36.001Z,91.80
2018-03-25T03:48:36.206Z,94.40
2018-03-25T03:49:36.419Z,93.10
2018-03-25T03:50:36.614Z,98.30
2018-03-25T03:51:36.822Z,97.10
2018-03-25T03:52:37.027Z,102.60
2018-03-25T03:53:37.221Z,102.30
2018-03-25T03:54:37.433Z,95.70
2018-03-25T03:55:39.594Z,103.10
2018-03-25T03:56:37.796Z,98.60
2018-03-25T03:57:38.005Z,110.50
2018-03-25T03:58:38.219Z,98.10
2018-03-25T03:59:38.419Z,102.30
2018-03-25T04:00:38.630Z,103.10
2018-03-25T04:01:38.824Z,93.40
2018-03-25T04:02:39.031Z,91.90
2018-03-25T04:03:39.244Z,93.50
2018-03-25T04:04:39.440Z,89.00
2018-03-25T04:05:39.649Z,93.50
2018-03-25T04:06:39.859Z,84.10
2018-03-25T04:07:40.066Z,91.40
2018-03-25T04:08:47.103Z,82.30
2018-03-25T04:09:40.419Z,86.30
2018-03-25T04:10:42.597Z,87.30
2018-03-25T04:11:40.811Z,86.50
2018-03-25T04:12:40.994Z,91.60
2018-03-25T04:13:41.199Z,90.80
2018-03-25T04:14:41.408Z,88.00
2018-03-25T04:15:41.610Z,92.30
2018-03-25T04:16:41.821Z,91.50
2018-03-25T04:17:42.026Z,90.00
2018-03-25T04:18:44.094Z,89.20
2018-03-25T04:19:44.095Z,98.20
2018-03-25T04:20:44.097Z,94.50
2018-03-25T04:21:42.670Z,93.90
2018-03-25T04:22:42.879Z,88.30
2018-03-25T04:23:44.598Z,91.40
2018-03-25T04:24:43.292Z,97.00
2018-03-25T04:25:45.129Z,96.30
2018-03-25T04:26:43.680Z,97.30
2018-03-25T04:27:43.895Z,96.50
2018-03-25T04:28:44.075Z,95.80
2018-03-25T04:29:44.287Z,101.50
2018-03-25T04:30:44.500Z,98.90
2018-03-25T04:31:44.691Z,96.90
2018-03-25T04:32:44.907Z,108.30
2018-03-25T04:33:45.105Z,99.00
2018-03-25T04:34:45.308Z,113.90
2018-03-25T04:35:47.096Z,118.80
2018-03-25T04:36:45.668Z,118.00
2018-03-25T04:37:45.865Z,131.50
2018-03-25T04:38:46.078Z,137.70
2018-03-25T04:39:48.101Z,115.50
2018-03-25T04:40:46.422Z,109.70
2018-03-25T04:41:46.627Z,114.40
2018-03-25T04:42:46.823Z,107.60
2018-03-25T04:43:47.034Z,100.40
2018-03-25T04:44:47.244Z,97.30
2018-03-25T04:45:47.443Z,97.60
2018-03-25T04:46:49.605Z,99.20
2018-03-25T04:47:47.805Z,109.10
2018-03-25T04:48:48.004Z,106.60
2018-03-25T04:49:48.209Z,99.70
2018-03-25T04:50:48.406Z,101.30
2018-03-25T04:51:50.097Z,94.10
2018-03-25T04:52:48.804Z,101.10
2018-03-25T04:53:49.002Z,98.10
2018-03-25T04:54:57.107Z,94.60
2018-03-25T04:55:51.096Z,100.60
2018-03-25T04:56:51.109Z,95.20
2018-03-25T04:57:53.095Z,101.20
2018-03-25T04:58:49.668Z,100.30
2018-03-25T04:59:49.873Z,106.00
2018-03-25T05:00:50.079Z,103.50
2018-03-25T05:01:50.291Z,97.20
2018-03-25T05:02:50.490Z,111.70
2018-03-25T05:03:50.716Z,104.70
2018-03-25T05:04:50.915Z,99.00
2018-03-25T05:05:51.110Z,102.50
2018-03-25T05:06:51.310Z,106.30
2018-03-25T05:07:51.501Z,100.90
2018-03-25T05:08:53.595Z,105.50
2018-03-25T05:09:51.915Z,103.40
2018-03-25T05:10:52.116Z,98.70
2018-03-25T05:11:52.356Z,101.20
2018-03-25T05:12:52.532Z,98.10
2018-03-25T05:13:52.735Z,98.40
2018-03-25T05:14:52.944Z,94.80
2018-03-25T05:15:53.130Z,101.80
2018-03-25T05:16:53.335Z,101.30
2018-03-25T05:17:53.553Z,99.70
2018-03-25T05:18:53.758Z,105.10
2018-03-25T05:19:57.593Z,107.90
2018-03-25T05:20:54.163Z,108.00
2018-03-25T05:21:54.369Z,108.30
2018-03-25T05:22:56.098Z,118.00
2018-03-25T05:23:54.672Z,109.30
2018-03-25T05:24:58.593Z,99.20
2018-03-25T05:25:55.049Z,104.70
2018-03-25T05:26:55.262Z,112.80
2018-03-25T05:27:57.098Z,107.50
2018-03-25T05:28:55.677Z,98.90
2018-03-25T05:29:59.603Z,97.30
2018-03-25T05:30:56.063Z,96.30
2018-03-25T05:31:58.104Z,96.50
2018-03-25T05:32:56.444Z,93.80
2018-03-25T05:33:56.649Z,89.30
2018-03-25T05:34:56.854Z,90.40
2018-03-25T05:35:57.062Z,92.70
2018-03-25T05:36:59.097Z,99.50
2018-03-25T05:37:57.430Z,90.00
2018-03-25T05:38:57.633Z,87.50
2018-03-25T05:39:57.827Z,90.50
2018-03-25T05:40:59.601Z,91.60
2018-03-25T05:41:58.184Z,87.20
2018-03-25T05:42:58.388Z,90.60
2018-03-25T05:43:58.587Z,91.40
2018-03-25T05:44:58.787Z,85.20
2018-03-25T05:45:59.007Z,95.10
2018-03-25T05:46:59.212Z,98.30
2018-03-25T05:47:59.413Z,94.60
2018-03-25T05:48:59.618Z,94.40
2018-03-25T05:49:59.833Z,91.00
2018-03-25T05:51:00.033Z,89.70
2018-03-25T05:52:04.094Z,93.20
2018-03-25T05:53:00.415Z,87.00
2018-03-25T05:54:00.676Z,85.00
2018-03-25T05:55:00.826Z,84.00
2018-03-25T05:56:01.044Z,84.90
2018-03-25T05:57:01.250Z,83.80
2018-03-25T05:58:01.457Z,80.10
2018-03-25T05:59:01.659Z,81.70
2018-03-25T06:00:01.856Z,80.00
2018-03-25T06:01:03.594Z,76.50
2018-03-25T06:02:02.169Z,75.90
2018-03-25T06:03:02.381Z,70.60
2018-03-25T06:04:02.584Z,71.80
2018-03-25T06:05:04.593Z,74.20
2018-03-25T06:06:02.929Z,69.90
2018-03-25T06:07:03.138Z,75.70
2018-03-25T06:08:03.355Z,67.30
2018-03-25T06:09:03.570Z,73.00
2018-03-25T06:10:03.753Z,71.50
2018-03-25T06:11:05.597Z,66.50
2018-03-25T06:12:04.175Z,66.60
2018-03-25T06:13:04.378Z,62.00
2018-03-25T06:14:06.101Z,61.40
2018-03-25T06:15:04.795Z,63.00
2018-03-25T06:16:05.008Z,62.30
2018-03-25T06:17:05.221Z,62.00
2018-03-25T06:18:08.104Z,62.10
2018-03-25T06:19:05.562Z,59.90
2018-03-25T06:20:05.766Z,59.10
2018-03-25T06:21:05.972Z,57.40
2018-03-25T06:22:06.191Z,57.10
2018-03-25T06:23:06.396Z,54.80
2018-03-25T06:24:07.245Z,54.70
2018-03-25T06:25:06.833Z,54.70
2018-03-25T06:26:07.042Z,52.70
2018-03-25T06:27:07.249Z,51.00
2018-03-25T06:28:07.462Z,50.80
2018-03-25T06:29:07.663Z,52.30
2018-03-25T06:30:07.881Z,49.00
2018-03-25T06:31:09.595Z,49.90
2018-03-25T06:32:10.094Z,51.60
2018-03-25T06:33:08.422Z,47.10
2018-03-25T06:34:08.635Z,46.60
2018-03-25T06:35:08.839Z,48.20
2018-03-25T06:36:09.056Z,41.20
2018-03-25T06:37:09.269Z,40.90
2018-03-25T06:38:12.110Z,40.30
2018-03-25T06:39:09.568Z,40.90
2018-03-25T06:40:09.787Z,39.30
2018-03-25T06:41:09.986Z,37.50
2018-03-25T06:42:10.182Z,39.10
2018-03-25T06:43:12.096Z,39.10
2018-03-25T06:44:10.553Z,35.90
2018-03-25T06:45:10.759Z,35.60
2018-03-25T06:46:11.069Z,33.40
2018-03-25T06:47:13.101Z,33.40
2018-03-25T06:48:11.306Z,34.80
2018-03-25T06:49:11.508Z,33.20
2018-03-25T06:50:11.717Z,32.80
2018-03-25T06:51:11.927Z,33.80
2018-03-25T06:52:14.116Z,32.50
2018-03-25T06:53:12.328Z,30.50
2018-03-25T06:54:12.538Z,31.20
2018-03-25T06:55:12.736Z,30.40
2018-03-25T06:56:14.607Z,29.10
2018-03-25T06:57:13.622Z,31.60
2018-03-25T06:58:13.212Z,30.10
2018-03-25T06:59:13.423Z,33.40
2018-03-25T07:00:13.647Z,30.60
2018-03-25T07:01:13.844Z,34.60
2018-03-25T07:02:14.050Z,32.10
2018-03-25T07:03:16.099Z,31.50
2018-03-25T07:04:16.106Z,31.70
2018-03-25T07:05:16.099Z,31.40
2018-03-25T07:06:14.708Z,30.60
2018-03-25T07:07:16.632Z,28.90
2018-03-25T07:08:15.059Z,29.60
2018-03-25T07:09:15.277Z,29.60
2018-03-25T07:10:15.487Z,28.60
2018-03-25T07:11:15.709Z,28.50
2018-03-25T07:12:15.985Z,26.70
2018-03-25T07:13:16.130Z,27.20
2018-03-25T07:14:16.351Z,27.90
2018-03-25T07:15:16.565Z,26.60
2018-03-25T07:16:16.758Z,25.30
2018-03-25T07:17:18.600Z,27.80
2018-03-25T07:18:17.186Z,26.80
2018-03-25T07:19:19.098Z,27.70
2018-03-25T07:20:17.586Z,25.30
2018-03-25T07:21:17.683Z,27.10
2018-03-25T07:22:17.899Z,25.80
2018-03-25T07:23:18.119Z,25.40
2018-03-25T07:24:18.330Z,26.50
2018-03-25T07:25:18.556Z,25.10
2018-03-25T07:26:20.633Z,26.30
2018-03-25T07:27:18.974Z,25.90
2018-03-25T07:28:20.632Z,26.80
2018-03-25T07:29:19.235Z,27.90
2018-03-25T07:30:19.467Z,26.70
2018-03-25T07:31:21.602Z,24.90
2018-03-25T07:32:22.602Z,25.50
2018-03-25T07:33:20.962Z,25.80
2018-03-25T07:34:20.695Z,25.50
2018-03-25T07:35:20.378Z,24.40
2018-03-25T07:36:20.592Z,24.20
2018-03-25T07:37:22.599Z,24.60
2018-03-25T07:38:20.934Z,25.30
2018-03-25T07:39:22.166Z,25.20
2018-03-25T07:40:23.098Z,25.30
2018-03-25T07:41:22.502Z,24.40
2018-03-25T07:42:21.611Z,24.40
2018-03-25T07:43:23.599Z,24.00
2018-03-25T07:44:21.963Z,24.60
2018-03-25T07:45:23.606Z,25.10
2018-03-25T07:46:22.230Z,24.70
2018-03-25T07:47:23.394Z,24.50
2018-03-25T07:48:24.098Z,24.80
2018-03-25T07:49:22.680Z,23.40
2018-03-25T07:50:22.924Z,23.70
2018-03-25T07:51:25.599Z,23.50
2018-03-25T07:52:23.186Z,23.90
2018-03-25T07:53:25.107Z,24.30
2018-03-25T07:54:23.569Z,25.70
2018-03-25T07:55:23.832Z,25.50
2018-03-25T07:56:27.623Z,25.30
2018-03-25T07:57:25.601Z,24.30
2018-03-25T07:58:28.108Z,26.00
2018-03-25T07:59:41.093Z,25.90
2018-03-25T08:00:30.804Z,26.20
2018-03-25T08:01:24.964Z,25.90
2018-03-25T08:02:28.058Z,26.60
2018-03-25T08:03:27.105Z,27.20
2018-03-25T08:04:29.084Z,26.00
2018-03-25T08:05:27.134Z,26.20
2018-03-25T08:06:29.107Z,26.50
2018-03-25T08:07:25.817Z,26.20
2018-03-25T08:08:27.627Z,27.30
2018-03-25T08:09:26.218Z,27.30
2018-03-25T08:10:27.428Z,26.20
2018-03-25T08:11:26.648Z,25.80
2018-03-25T08:12:27.613Z,26.70
2018-03-25T08:13:28.066Z,27.20
2018-03-25T08:14:28.067Z,26.40
2018-03-25T08:15:43.145Z,27.20
2018-03-25T08:16:27.598Z,26.60
2018-03-25T08:17:27.818Z,26.20
2018-03-25T08:18:29.603Z,27.10
2018-03-25T08:19:31.050Z,26.70
2018-03-25T08:20:28.444Z,27.40
2018-03-25T08:21:28.712Z,27.90
2018-03-25T08:22:28.884Z,28.20
2018-03-25T08:23:30.611Z,27.90
2018-03-25T08:24:30.611Z,28.20
2018-03-25T08:25:33.102Z,28.10
2018-03-25T08:26:31.603Z,27.60
2018-03-25T08:27:30.905Z,28.40
2018-03-25T08:28:31.649Z,27.90
2018-03-25T08:29:32.103Z,28.70
2018-03-25T08:30:32.164Z,28.20
2018-03-25T08:31:30.484Z,28.40
2018-03-25T08:32:31.632Z,28.10
2018-03-25T08:33:30.872Z,28.10
2018-03-25T08:34:31.103Z,27.90
2018-03-25T08:35:32.660Z,28.10
2018-03-25T08:36:33.123Z,28.10
2018-03-25T08:37:33.607Z,27.10
2018-03-25T08:38:33.603Z,28.50
2018-03-25T08:39:32.155Z,28.40
2018-03-25T08:40:36.106Z,27.90
2018-03-25T08:41:32.571Z,26.70
2018-03-25T08:42:36.615Z,27.10
2018-03-25T08:43:35.608Z,27.80
2018-03-25T08:44:40.606Z,26.50
2018-03-25T08:45:35.121Z,26.40
2018-03-25T08:46:33.543Z,26.40
2018-03-25T08:47:41.607Z,27.80
2018-03-25T08:48:35.606Z,27.30
2018-03-25T08:49:35.649Z,27.00
2018-03-25T08:50:36.109Z,26.80
2018-03-25T08:51:35.492Z,27.20
2018-03-25T08:52:34.602Z,28.20
2018-03-25T08:53:37.605Z,27.00
2018-03-25T08:54:38.610Z,27.90
2018-03-25T08:55:37.149Z,26.80
2018-03-25T08:56:35.330Z,26.30
2018-03-25T08:57:35.542Z,27.40
2018-03-25T08:58:41.749Z,26.70
2018-03-25T08:59:37.616Z,27.30
2018-03-25T09:00:36.201Z,26.30
2018-03-25T09:01:38.109Z,27.10
2018-03-25T09:02:36.577Z,28.10
2018-03-25T09:03:36.833Z,28.20
2018-03-25T09:04:39.611Z,27.80
2018-03-25T09:05:39.113Z,28.40
2018-03-25T09:06:37.338Z,28.30
2018-03-25T09:07:40.110Z,28.50
2018-03-25T09:08:39.608Z,28.80
2018-03-25T09:09:37.836Z,28.40
2018-03-25T09:10:38.055Z,28.90
2018-03-25T09:11:38.275Z,28.60
2018-03-25T09:12:40.109Z,28.50
2018-03-25T09:13:38.704Z,28.00
2018-03-25T09:14:38.935Z,28.20
2018-03-25T09:15:39.148Z,26.70
2018-03-25T09:16:39.377Z,28.70
2018-03-25T09:17:41.124Z,28.20
2018-03-25T09:18:39.845Z,28.60
2018-03-25T09:19:40.074Z,28.50
2018-03-25T09:20:40.303Z,27.30
2018-03-25T09:21:41.519Z,27.10
2018-03-25T09:22:40.748Z,27.90
2018-03-25T09:23:40.977Z,26.90
2018-03-25T09:24:41.198Z,27.60
2018-03-25T09:25:41.441Z,27.80
2018-03-25T09:26:43.613Z,27.30
2018-03-25T09:27:41.829Z,27.50
2018-03-25T09:28:43.611Z,27.90
2018-03-25T09:29:42.206Z,27.70
2018-03-25T09:30:44.111Z,27.10
2018-03-25T09:31:42.590Z,26.90
2018-03-25T09:32:42.818Z,27.60
2018-03-25T09:33:43.053Z,27.90
2018-03-25T09:34:43.291Z,26.90
2018-03-25T09:35:43.506Z,26.20
2018-03-25T09:36:43.734Z,27.40
2018-03-25T09:37:43.965Z,27.20
2018-03-25T09:38:44.185Z,27.80
2018-03-25T09:39:44.405Z,27.90
2018-03-25T09:40:44.619Z,26.90
2018-03-25T09:41:44.856Z,27.20
2018-03-25T09:42:45.073Z,27.70
2018-03-25T09:43:45.293Z,27.30
2018-03-25T09:44:45.522Z,27.30
2018-03-25T09:45:45.756Z,26.00
2018-03-25T09:46:45.976Z,27.20
2018-03-25T09:47:46.193Z,26.50
2018-03-25T09:48:46.413Z,26.40
2018-03-25T09:49:46.651Z,26.90
2018-03-25T09:50:46.879Z,26.30
2018-03-25T09:51:47.102Z,25.70
2018-03-25T09:52:47.335Z,26.00
2018-03-25T09:53:47.567Z,25.70
2018-03-25T09:54:47.790Z,26.30
2018-03-25T09:55:48.021Z,25.10
2018-03-25T09:56:48.255Z,25.80
2018-03-25T09:57:48.467Z,25.80
2018-03-25T09:58:48.700Z,26.00
2018-03-25T09:59:48.923Z,25.60
2018-03-25T10:00:49.141Z,25.40
2018-03-25T10:01:49.388Z,25.90
2018-03-25T10:02:49.609Z,25.20
2018-03-25T10:03:49.860Z,25.30
2018-03-25T10:04:50.071Z,25.30
2018-03-25T10:05:50.288Z,24.90
2018-03-25T10:06:50.524Z,24.70
2018-03-25T10:07:50.746Z,23.90
2018-03-25T10:08:50.984Z,24.40
2018-03-25T10:09:51.217Z,24.80
2018-03-25T10:10:51.433Z,24.40
2018-03-25T10:11:53.620Z,24.80
2018-03-25T10:12:53.614Z,25.40
2018-03-25T10:13:52.082Z,24.60
2018-03-25T10:14:52.321Z,24.40
2018-03-25T10:15:52.546Z,25.60
2018-03-25T10:16:52.773Z,24.50
2018-03-25T10:17:53.003Z,24.20
2018-03-25T10:18:53.237Z,24.60
2018-03-25T10:19:56.117Z,24.40
2018-03-25T10:20:53.598Z,24.20
2018-03-25T10:21:53.818Z,24.40
2018-03-25T10:22:54.049Z,24.90
2018-03-25T10:23:54.281Z,24.20
2018-03-25T10:24:54.559Z,24.00
2018-03-25T10:25:54.740Z,24.50
2018-03-25T10:26:54.969Z,23.80
2018-03-25T10:27:55.194Z,23.80
2018-03-25T10:28:55.421Z,24.30
2018-03-25T10:29:55.645Z,23.90
2018-03-25T10:30:55.875Z,22.70
2018-03-25T10:31:56.098Z,21.50
2018-03-25T10:32:56.324Z,21.40
2018-03-25T10:33:56.554Z,21.60
2018-03-25T10:34:56.776Z,20.60
2018-03-25T10:35:56.997Z,20.50
2018-03-25T10:36:57.235Z,18.70
2018-03-25T10:37:57.448Z,19.20
2018-03-25T10:38:57.679Z,18.60
2018-03-25T10:39:57.907Z,18.40
2018-03-25T10:40:58.129Z,17.80
2018-03-25T10:41:58.375Z,18.10
2018-03-25T10:42:58.608Z,18.90
2018-03-25T10:43:58.834Z,20.70
2018-03-25T10:44:59.065Z,21.90
2018-03-25T10:45:59.300Z,22.30
2018-03-25T10:46:59.521Z,21.00
2018-03-25T10:47:59.762Z,21.80
2018-03-25T10:48:59.984Z,20.80
2018-03-25T10:50:00.198Z,21.40
2018-03-25T10:51:00.447Z,20.20
2018-03-25T10:52:00.658Z,20.20
2018-03-25T10:53:00.908Z,20.30
2018-03-25T10:54:01.033Z,20.40
2018-03-25T10:55:01.249Z,20.70
2018-03-25T10:56:01.480Z,19.30
2018-03-25T10:57:01.722Z,19.90
2018-03-25T10:58:01.936Z,17.70
2018-03-25T10:59:02.169Z,15.70
2018-03-25T11:00:02.387Z,15.20
2018-03-25T11:01:02.616Z,15.10
2018-03-25T11:02:02.849Z,17.50
2018-03-25T11:03:03.069Z,16.90
2018-03-25T11:04:05.116Z,17.70
2018-03-25T11:05:05.120Z,15.40
2018-03-25T11:06:03.590Z,16.20
2018-03-25T11:07:03.824Z,16.30
2018-03-25T11:08:04.044Z,18.10
2018-03-25T11:09:04.273Z,18.50
2018-03-25T11:10:06.124Z,18.20
2018-03-25T11:11:04.722Z,18.60
2018-03-25T11:12:07.624Z,17.90
2018-03-25T11:13:05.102Z,18.30
2018-03-25T11:14:05.325Z,18.30
2018-03-25T11:15:05.553Z,17.90
2018-03-25T11:16:05.791Z,17.30
2018-03-25T11:17:06.017Z,16.00
2018-03-25T11:18:08.119Z,16.70
2018-03-25T11:19:06.477Z,16.50
2018-03-25T11:20:08.631Z,14.80
2018-03-25T11:21:06.852Z,17.00
2018-03-25T11:22:08.620Z,17.40
2018-03-25T11:23:07.254Z,17.40
2018-03-25T11:24:07.455Z,17.50
2018-03-25T11:25:07.670Z,17.20
2018-03-25T11:26:07.905Z,16.90
2018-03-25T11:27:08.128Z,16.60
2018-03-25T11:28:11.121Z,17.40
2018-03-25T11:29:08.598Z,17.40
2018-03-25T11:30:08.817Z,17.10
2018-03-25T11:31:09.039Z,16.80
2018-03-25T11:32:09.281Z,16.90
2018-03-25T11:33:09.496Z,17.20
2018-03-25T11:34:11.625Z,16.50
2018-03-25T11:35:09.979Z,15.80
2018-03-25T11:36:10.200Z,16.40
2018-03-25T11:37:10.453Z,16.60
2018-03-25T11:38:10.667Z,17.90
2018-03-25T11:39:10.894Z,16.70
2018-03-25T11:40:11.184Z,17.50
2018-03-25T11:41:11.354Z,17.40
2018-03-25T11:42:13.137Z,18.00
2018-03-25T11:43:11.740Z,17.70
2018-03-25T11:44:11.963Z,17.30
2018-03-25T11:45:12.184Z,17.60
2018-03-25T11:46:12.416Z,18.10
2018-03-25T11:47:12.644Z,17.60
2018-03-25T11:48:12.875Z,17.60
2018-03-25T11:49:13.095Z,17.30
2018-03-25T11:50:13.339Z,17.90
2018-03-25T11:51:13.554Z,16.60
2018-03-25T11:52:13.777Z,16.60
2018-03-25T11:53:14.021Z,16.90
2018-03-25T11:54:14.242Z,17.60
2018-03-25T11:55:15.223Z,17.40
2018-03-25T11:56:16.621Z,17.50
2018-03-25T11:57:16.625Z,16.40
2018-03-25T11:58:15.094Z,15.70
2018-03-25T11:59:15.318Z,15.20
2018-03-25T12:00:15.537Z,15.20
2018-03-25T12:01:15.772Z,16.30
2018-03-25T12:02:15.993Z,16.80
2018-03-25T12:03:16.211Z,15.10
2018-03-25T12:04:16.430Z,15.60
2018-03-25T12:05:16.664Z,14.80
2018-03-25T12:06:16.887Z,15.10
2018-03-25T12:07:17.117Z,15.00
2018-03-25T12:08:17.336Z,16.10
2018-03-25T12:09:17.562Z,16.10
2018-03-25T12:10:19.624Z,15.90
2018-03-25T12:11:17.979Z,16.80
2018-03-25T12:12:18.203Z,17.20
2018-03-25T12:13:18.422Z,17.20
2018-03-25T12:14:20.622Z,15.90
2018-03-25T12:15:18.853Z,17.30
2018-03-25T12:16:19.076Z,16.60
2018-03-25T12:17:19.296Z,15.70
2018-03-25T12:18:19.536Z,15.20
2018-03-25T12:19:19.754Z,14.50
2018-03-25T12:20:19.978Z,14.40
2018-03-25T12:21:20.221Z,14.90
2018-03-25T12:22:20.437Z,14.30
2018-03-25T12:23:22.626Z,15.50
2018-03-25T12:24:20.856Z,15.60
2018-03-25T12:25:21.077Z,16.10
2018-03-25T12:26:21.312Z,15.40
2018-03-25T12:27:21.546Z,15.60
2018-03-25T12:28:21.776Z,15.00
2018-03-25T12:29:22.010Z,16.00
2018-03-25T12:30:22.236Z,15.60
2018-03-25T12:31:22.462Z,15.10
2018-03-25T12:32:22.694Z,15.70
2018-03-25T12:33:24.625Z,15.00
2018-03-25T12:34:23.098Z,15.50
2018-03-25T12:35:23.329Z,15.10
2018-03-25T12:36:23.552Z,15.40
2018-03-25T12:37:23.778Z,15.60
2018-03-25T12:38:23.999Z,16.30
2018-03-25T12:39:24.233Z,16.50
2018-03-25T12:40:24.460Z,15.30
2018-03-25T12:41:24.680Z,15.30
2018-03-25T12:42:24.911Z,15.50
2018-03-25T12:43:25.144Z,15.90
2018-03-25T12:44:29.125Z,15.50
2018-03-25T12:45:27.136Z,15.40
2018-03-25T12:46:25.750Z,15.80
2018-03-25T12:47:25.964Z,15.60
2018-03-25T12:48:26.195Z,16.10
2018-03-25T12:49:26.423Z,15.50
2018-03-25T12:50:26.644Z,15.70
2018-03-25T12:51:26.876Z,15.90
2018-03-25T12:52:27.101Z,15.50
2018-03-25T12:53:31.125Z,17.00
2018-03-25T12:54:27.474Z,16.30